Time;durP1;ratioP1;P1;durP2;ratioP2;P2;SDS_P1;SDS_P2;PMS_P1;PMS_P2;Temp;Humidity;BMP_temperature;BMP_pressure;BME280_temperature;BME280_humidity;BME280_pressure;Samples;Min_cycle;Max_cycle;Signal;HPM_P1;HPM_P2
2023/07/14 00:01:25;;;;;;;5.20;3.13;;;16.40;99.90;;;;;;5093827;28;20238;-76
2023/07/14 00:03:54;;;;;;;4.57;3.50;;;16.40;99.90;;;;;;5093415;28;20320;-74
2023/07/14 00:06:23;;;;;;;4.20;3.40;;;16.30;99.90;;;;;;5094244;28;20611;-77
2023/07/14 00:08:51;;;;;;;5.60;3.60;;;16.20;99.90;;;;;;5093656;28;20577;-76
2023/07/14 00:11:21;;;;;;;5.73;3.20;;;16.20;99.90;;;;;;5093466;28;20211;-75
2023/07/14 00:13:51;;;;;;;7.10;3.40;;;16.20;99.90;;;;;;5093475;28;20215;-76
2023/07/14 00:16:21;;;;;;;5.53;3.10;;;16.20;99.90;;;;;;5093907;28;20218;-76
2023/07/14 00:18:49;;;;;;;4.50;3.30;;;16.20;99.90;;;;;;5093446;28;20213;-76
2023/07/14 00:21:22;;;;;;;4.33;3.43;;;16.10;99.90;;;;;;5092646;28;20214;-77
2023/07/14 00:23:51;;;;;;;5.77;3.47;;;16.10;99.90;;;;;;5092763;28;20195;-74
2023/07/14 00:26:21;;;;;;;5.90;3.47;;;16.10;99.90;;;;;;5093034;28;20198;-76
2023/07/14 00:28:49;;;;;;;4.67;3.63;;;16.00;99.90;;;;;;5093517;28;20248;-77
2023/07/14 00:31:19;;;;;;;6.90;3.80;;;16.00;99.90;;;;;;5092852;28;20649;-75
2023/07/14 00:33:49;;;;;;;5.57;3.33;;;15.90;99.90;;;;;;5092974;28;20663;-75
2023/07/14 00:36:19;;;;;;;4.93;3.60;;;15.90;99.90;;;;;;5093484;28;20286;-77
2023/07/14 00:38:47;;;;;;;5.90;3.60;;;15.90;99.90;;;;;;5113080;28;20245;-77
2023/07/14 00:41:19;;;;;;;4.50;3.90;;;15.90;99.90;;;;;;5114012;28;20552;-78
2023/07/14 00:43:48;;;;;;;4.10;3.70;;;15.90;99.90;;;;;;5108729;28;20223;-78
2023/07/14 00:46:26;;;;;;;5.30;3.40;;;15.90;99.90;;;;;;5093031;28;20229;-74
2023/07/14 00:48:58;;;;;;;5.63;3.50;;;15.90;99.90;;;;;;5092998;28;20210;-77
2023/07/14 00:51:30;;;;;;;7.40;4.20;;;15.90;99.90;;;;;;5093086;28;20210;-76
2023/07/14 00:53:58;;;;;;;7.70;3.90;;;16.00;99.90;;;;;;5092254;28;20210;-78
2023/07/14 00:56:35;;;;;;;5.30;3.83;;;16.00;99.90;;;;;;5092654;28;20256;-75
2023/07/14 00:59:13;;;;;;;6.27;3.77;;;16.00;99.90;;;;;;5092990;28;20618;-78
2023/07/14 01:02:28;;;;;;;3.77;3.40;;;16.00;99.90;;;;;;5092366;28;20209;-79
2023/07/14 01:04:59;;;;;;;6.37;3.87;;;16.00;99.90;;;;;;5029855;28;20282;-78
2023/07/14 01:07:35;;;;;;;8.23;3.97;;;16.00;99.90;;;;;;5030131;28;20212;-76
2023/07/14 01:10:04;;;;;;;4.93;3.90;;;16.00;99.90;;;;;;5062303;28;20556;-76
2023/07/14 01:12:37;;;;;;;4.27;3.60;;;15.90;99.90;;;;;;5092336;28;20198;-77
2023/07/14 01:15:07;;;;;;;4.93;3.67;;;15.90;99.90;;;;;;5092353;28;20229;-76
2023/07/14 01:17:37;;;;;;;4.70;3.80;;;15.80;99.90;;;;;;5092541;28;20215;-78
2023/07/14 01:20:08;;;;;;;5.70;3.77;;;15.80;99.90;;;;;;5092250;28;20298;-76
2023/07/14 01:22:47;;;;;;;6.67;3.83;;;15.70;99.90;;;;;;5091877;28;20227;-74
2023/07/14 01:25:24;;;;;;;7.00;3.87;;;15.70;99.90;;;;;;5091443;28;20207;-73
2023/07/14 01:27:54;;;;;;;4.53;3.80;;;15.60;99.90;;;;;;5091358;28;20628;-78
2023/07/14 01:30:23;;;;;;;5.30;3.90;;;15.60;99.90;;;;;;5092165;28;20211;-76
2023/07/14 01:32:52;;;;;;;5.27;3.43;;;15.50;99.90;;;;;;5092058;28;20298;-76
2023/07/14 01:35:32;;;;;;;7.13;4.13;;;15.50;99.90;;;;;;5096638;28;20293;-76
2023/07/14 01:38:00;;;;;;;8.53;3.97;;;15.40;99.90;;;;;;5105752;28;20211;-77
2023/07/14 01:40:30;;;;;;;7.40;3.90;;;15.40;99.90;;;;;;5092234;28;20234;-73
2023/07/14 01:43:01;;;;;;;7.00;4.30;;;15.30;99.90;;;;;;5091923;28;20222;-74
2023/07/14 01:45:33;;;;;;;4.93;3.50;;;15.30;99.90;;;;;;5092515;28;20210;-74
2023/07/14 01:48:03;;;;;;;5.53;3.80;;;15.20;99.90;;;;;;5092783;28;20203;-79
2023/07/14 01:50:36;;;;;;;5.43;4.07;;;15.20;99.90;;;;;;5092193;28;20567;-77
2023/07/14 01:53:09;;;;;;;4.83;3.93;;;15.20;99.90;;;;;;5091886;28;20633;-77
2023/07/14 01:55:41;;;;;;;5.83;3.80;;;15.10;99.90;;;;;;5100010;28;20241;-79
2023/07/14 01:58:15;;;;;;;6.33;3.80;;;15.10;99.90;;;;;;5112590;28;20247;-78
2023/07/14 02:00:46;;;;;;;7.23;3.87;;;15.00;99.90;;;;;;5112616;28;20247;-79
2023/07/14 02:03:17;;;;;;;6.50;4.03;;;15.00;99.90;;;;;;5110443;28;20707;-75
2023/07/14 02:05:45;;;;;;;4.43;3.80;;;14.90;99.90;;;;;;5112437;28;20233;-75
2023/07/14 02:08:19;;;;;;;8.07;4.27;;;14.90;99.90;;;;;;5111973;28;20284;-76
2023/07/14 02:10:47;;;;;;;6.93;4.33;;;14.90;99.90;;;;;;5111908;28;20191;-74
2023/07/14 02:13:17;;;;;;;5.30;4.20;;;14.80;99.90;;;;;;5097160;28;20207;-75
2023/07/14 02:15:46;;;;;;;5.90;3.97;;;14.80;99.90;;;;;;5091954;28;20230;-77
2023/07/14 02:18:19;;;;;;;6.83;4.17;;;14.80;99.90;;;;;;5092361;28;20612;-76
2023/07/14 02:20:48;;;;;;;6.83;3.90;;;14.80;99.90;;;;;;5092051;28;20593;-77
2023/07/14 02:23:20;;;;;;;6.40;4.13;;;14.70;99.90;;;;;;5091078;28;20234;-76
2023/07/14 02:26:04;;;;;;;6.87;4.20;;;14.70;99.90;;;;;;5091759;28;20589;-78
2023/07/14 02:28:33;;;;;;;8.03;4.20;;;14.70;99.90;;;;;;5091572;28;20256;-79
2023/07/14 02:31:11;;;;;;;6.13;4.50;;;14.60;99.90;;;;;;5091398;28;20203;-77
2023/07/14 02:33:44;;;;;;;7.63;4.30;;;14.60;99.90;;;;;;5094013;28;20205;-76
2023/07/14 02:36:19;;;;;;;5.87;4.20;;;14.60;99.90;;;;;;5111958;28;20245;-76
2023/07/14 02:38:47;;;;;;;6.40;4.53;;;14.50;99.90;;;;;;5100013;28;20264;-80
2023/07/14 02:41:20;;;;;;;4.97;4.17;;;14.50;99.90;;;;;;5091091;28;20211;-76
2023/07/14 02:43:52;;;;;;;5.23;4.27;;;14.50;99.90;;;;;;5091657;28;20215;-74
2023/07/14 02:46:24;;;;;;;8.30;4.73;;;14.40;99.90;;;;;;5095128;28;20733;-77
2023/07/14 02:48:53;;;;;;;5.43;4.60;;;14.40;99.90;;;;;;5115791;28;20190;-75
2023/07/14 02:51:21;;;;;;;5.30;3.97;;;14.40;99.90;;;;;;5115670;28;20237;-78
2023/07/14 02:53:50;;;;;;;7.57;4.43;;;14.40;99.90;;;;;;5115195;28;20242;-79
2023/07/14 02:56:19;;;;;;;6.87;4.60;;;14.30;99.90;;;;;;5096179;28;20311;-76
2023/07/14 02:58:49;;;;;;;6.80;4.03;;;14.30;99.90;;;;;;5095507;28;20276;-77
2023/07/14 03:01:20;;;;;;;8.07;4.07;;;14.30;99.90;;;;;;5095270;28;20233;-77
2023/07/14 03:03:48;;;;;;;8.50;4.23;;;14.30;99.90;;;;;;5095142;28;20223;-77
2023/07/14 03:06:19;;;;;;;7.10;4.30;;;14.20;99.90;;;;;;5095566;28;20306;-79
2023/07/14 03:08:47;;;;;;;5.97;3.97;;;14.20;99.90;;;;;;5095186;28;20210;-75
2023/07/14 03:11:16;;;;;;;5.90;3.93;;;14.20;99.90;;;;;;5100958;28;20276;-76
2023/07/14 03:13:46;;;;;;;6.37;3.50;;;14.20;99.90;;;;;;5109086;28;20268;-74
2023/07/14 03:16:15;;;;;;;8.90;3.90;;;14.10;99.90;;;;;;5102444;28;20206;-79
2023/07/14 03:18:45;;;;;;;6.60;3.80;;;14.10;99.90;;;;;;5095287;28;20210;-77
2023/07/14 03:21:13;;;;;;;4.97;3.83;;;14.10;99.90;;;;;;5095200;28;20233;-80
2023/07/14 03:23:42;;;;;;;4.43;3.90;;;14.10;99.90;;;;;;5094930;28;20257;-79
2023/07/14 03:26:11;;;;;;;11.07;3.67;;;14.10;99.90;;;;;;5094932;28;20210;-77
2023/07/14 03:28:39;;;;;;;5.53;3.73;;;14.10;99.90;;;;;;5095250;28;20207;-75
2023/07/14 03:31:07;;;;;;;7.97;4.00;;;14.00;99.90;;;;;;5107273;28;20217;-78
2023/07/14 03:33:36;;;;;;;4.50;4.00;;;14.00;99.90;;;;;;5114881;28;20678;-78
2023/07/14 03:36:08;;;;;;;4.53;3.77;;;14.00;99.90;;;;;;5115302;28;20295;-77
2023/07/14 03:38:39;;;;;;;7.47;4.03;;;14.00;99.90;;;;;;5110561;28;20676;-78
2023/07/14 03:41:07;;;;;;;7.30;3.77;;;14.00;99.90;;;;;;5094768;28;20298;-76
2023/07/14 03:43:36;;;;;;;6.00;3.77;;;13.90;99.90;;;;;;5094419;28;20230;-78
2023/07/14 03:46:04;;;;;;;6.43;3.80;;;14.00;99.90;;;;;;5095072;28;20272;-78
2023/07/14 03:48:32;;;;;;;7.37;4.00;;;14.00;99.90;;;;;;5094060;28;20294;-77
2023/07/14 03:51:01;;;;;;;5.63;4.00;;;13.90;99.90;;;;;;5094652;28;20611;-79
2023/07/14 03:53:31;;;;;;;5.13;3.80;;;13.90;99.90;;;;;;5093880;28;20214;-78
2023/07/14 03:55:59;;;;;;;4.67;3.70;;;13.90;99.90;;;;;;5094632;28;20217;-79
2023/07/14 03:58:28;;;;;;;4.63;3.70;;;14.00;99.90;;;;;;5094810;28;20215;-74
2023/07/14 04:01:00;;;;;;;5.33;3.47;;;13.90;99.90;;;;;;5094326;28;20314;-75
2023/07/14 04:03:29;;;;;;;5.97;3.37;;;14.00;99.90;;;;;;5096165;28;20191;-78
2023/07/14 04:05:58;;;;;;;8.40;3.80;;;14.00;99.90;;;;;;5111009;27;20214;-77
2023/07/14 04:08:26;;;;;;;4.63;3.67;;;14.00;99.90;;;;;;5114573;28;20210;-77
2023/07/14 04:10:55;;;;;;;6.30;3.63;;;14.00;99.90;;;;;;5114522;28;20277;-77
2023/07/14 04:13:23;;;;;;;4.23;3.30;;;14.00;99.90;;;;;;5114100;27;20210;-76
2023/07/14 04:15:51;;;;;;;5.17;3.77;;;14.00;99.90;;;;;;5108597;28;20209;-76
2023/07/14 04:18:20;;;;;;;7.80;3.80;;;14.10;99.90;;;;;;5107818;28;20206;-78
2023/07/14 04:20:48;;;;;;;6.33;3.50;;;14.10;99.90;;;;;;5113491;28;20251;-76
2023/07/14 04:23:17;;;;;;;6.90;3.90;;;14.20;99.90;;;;;;5112553;28;20271;-77
2023/07/14 04:25:46;;;;;;;5.67;3.30;;;14.30;99.90;;;;;;5117872;28;20218;-76
2023/07/14 04:28:15;;;;;;;8.37;3.40;;;14.30;99.90;;;;;;5120120;28;20198;-78
2023/07/14 04:30:43;;;;;;;5.90;3.37;;;14.30;99.90;;;;;;5116601;28;20194;-74
2023/07/14 04:33:11;;;;;;;5.57;3.17;;;14.40;99.90;;;;;;5113952;28;20268;-77
2023/07/14 04:35:39;;;;;;;6.60;3.30;;;14.50;99.90;;;;;;5116116;28;20195;-77
2023/07/14 04:38:07;;;;;;;8.70;3.30;;;14.40;99.90;;;;;;5114447;28;20198;-77
2023/07/14 04:40:39;;;;;;;5.70;3.50;;;14.50;99.90;;;;;;5114716;28;20535;-77
2023/07/14 04:43:08;;;;;;;7.40;3.57;;;14.60;99.90;;;;;;5110990;28;20218;-75
2023/07/14 04:45:40;;;;;;;7.87;3.57;;;14.60;99.90;;;;;;5113839;28;20622;-77
2023/07/14 04:48:09;;;;;;;5.53;3.30;;;14.60;99.90;;;;;;5112467;28;20563;-76
2023/07/14 04:50:37;;;;;;;6.90;3.30;;;14.70;99.90;;;;;;5113383;28;20664;-77
2023/07/14 04:53:06;;;;;;;6.40;3.53;;;14.80;99.90;;;;;;5114593;28;20198;-77
2023/07/14 04:55:36;;;;;;;6.27;3.37;;;14.80;99.90;;;;;;5109842;28;20206;-77
2023/07/14 04:58:04;;;;;;;5.33;2.97;;;14.90;99.90;;;;;;5113683;28;20213;-76
2023/07/14 05:00:32;;;;;;;4.87;2.90;;;15.00;99.90;;;;;;5113425;28;20668;-74
2023/07/14 05:03:02;;;;;;;6.30;3.27;;;15.10;99.90;;;;;;5106053;28;20203;-76
2023/07/14 05:05:31;;;;;;;5.77;3.07;;;15.20;99.90;;;;;;5093560;28;20233;-76
2023/07/14 05:08:00;;;;;;;5.43;3.27;;;15.20;99.90;;;;;;5100231;28;20198;-76
2023/07/14 05:10:32;;;;;;;5.10;2.80;;;15.40;99.90;;;;;;5113077;27;20362;-75
2023/07/14 05:13:02;;;;;;;5.67;2.87;;;15.40;99.90;;;;;;5107568;28;20211;-75
2023/07/14 05:15:31;;;;;;;4.87;3.13;;;15.50;99.90;;;;;;5113613;28;20228;-76
2023/07/14 05:17:59;;;;;;;3.27;2.70;;;15.60;99.90;;;;;;5114056;28;20202;-76
2023/07/14 05:20:29;;;;;;;7.47;3.03;;;15.60;99.90;;;;;;5113384;28;20233;-74
2023/07/14 05:22:57;;;;;;;5.03;2.70;;;15.80;99.90;;;;;;5111861;28;20202;-75
2023/07/14 05:25:26;;;;;;;5.20;2.73;;;15.80;99.90;;;;;;5115889;28;20687;-75
2023/07/14 05:27:54;;;;;;;6.93;2.80;;;16.00;99.90;;;;;;5113960;28;20198;-76
2023/07/14 05:30:22;;;;;;;5.30;2.60;;;16.10;99.90;;;;;;5109144;28;20209;-75
2023/07/14 05:32:51;;;;;;;2.63;2.13;;;16.30;99.90;;;;;;5113065;28;20255;-76
2023/07/14 05:35:19;;;;;;;3.63;2.37;;;16.40;99.90;;;;;;5114375;28;20205;-76
2023/07/14 05:37:49;;;;;;;6.60;2.70;;;16.60;99.90;;;;;;5110581;28;20225;-76
2023/07/14 05:40:17;;;;;;;3.87;2.40;;;16.60;99.90;;;;;;5110765;28;20664;-76
2023/07/14 05:42:47;;;;;;;3.07;2.40;;;16.80;99.90;;;;;;5114669;28;20198;-77
2023/07/14 05:45:15;;;;;;;5.13;2.53;;;16.90;99.90;;;;;;5119279;28;20226;-78
2023/07/14 05:47:46;;;;;;;4.97;2.60;;;17.00;99.90;;;;;;5100593;28;20510;-76
2023/07/14 05:50:15;;;;;;;4.43;2.40;;;17.10;99.90;;;;;;5100645;28;20206;-74
2023/07/14 05:52:44;;;;;;;4.30;2.17;;;17.20;99.90;;;;;;5096479;28;20237;-77
2023/07/14 05:55:14;;;;;;;4.80;2.37;;;17.40;99.90;;;;;;5096480;28;20207;-76
2023/07/14 05:57:43;;;;;;;5.23;2.20;;;17.60;99.90;;;;;;5095182;28;20252;-75
2023/07/14 06:00:16;;;;;;;3.60;1.97;;;18.10;99.90;;;;;;5093688;28;20206;-76
2023/07/14 06:02:46;;;;;;;3.50;2.27;;;18.90;99.90;;;;;;5095373;28;20234;-75
2023/07/14 06:05:15;;;;;;;1.93;1.80;;;19.60;99.90;;;;;;5093491;28;20226;-78
2023/07/14 06:07:44;;;;;;;3.47;2.00;;;20.50;99.90;;;;;;5095447;28;20206;-78
2023/07/14 06:10:14;;;;;;;2.57;1.63;;;21.60;99.90;;;;;;5093587;28;20214;-77
2023/07/14 06:12:43;;;;;;;4.47;2.00;;;22.10;99.90;;;;;;5093942;28;20206;-76
2023/07/14 06:15:11;;;;;;;5.87;2.10;;;23.10;99.90;;;;;;5095072;28;20268;-76
2023/07/14 06:17:40;;;;;;;7.13;2.10;;;23.00;99.90;;;;;;5113881;28;20248;-77
2023/07/14 06:20:11;;;;;;;4.13;1.90;;;23.80;99.90;;;;;;5115369;28;20210;-78
2023/07/14 06:22:40;;;;;;;3.17;2.00;;;23.30;99.90;;;;;;5112124;28;20245;-77
2023/07/14 06:25:09;;;;;;;4.07;2.13;;;23.20;99.90;;;;;;5118571;28;20214;-81
2023/07/14 06:27:39;;;;;;;5.17;1.87;;;23.60;99.90;;;;;;5120227;28;20198;-79
2023/07/14 06:30:08;;;;;;;4.07;2.00;;;24.00;99.90;;;;;;5109396;28;20214;-78
2023/07/14 06:32:38;;;;;;;3.72;2.00;;;24.90;99.90;;;;;;5102533;28;20214;-80
2023/07/14 06:35:10;;;;;;;3.40;2.00;;;25.40;99.90;;;;;;5099768;28;20660;-79
2023/07/14 06:37:38;;;;;;;3.92;2.08;;;25.50;97.80;;;;;;5106739;28;20291;-78
2023/07/14 06:40:09;;;;;;;4.63;2.05;;;25.80;96.90;;;;;;5121603;28;20259;-78
2023/07/14 06:42:38;;;;;;;2.85;1.90;;;26.00;95.60;;;;;;5121267;28;20208;-78
2023/07/14 06:45:08;;;;;;;4.68;1.90;;;26.80;92.70;;;;;;5117976;28;20299;-79
2023/07/14 06:47:36;;;;;;;4.65;2.40;;;26.60;91.40;;;;;;5099568;28;20211;-78
2023/07/14 06:50:06;;;;;;;2.53;1.75;;;27.30;90.90;;;;;;5099202;28;20720;-79
2023/07/14 06:52:37;;;;;;;3.85;2.00;;;27.30;90.10;;;;;;5100613;28;20211;-79
2023/07/14 06:55:06;;;;;;;2.85;1.80;;;27.40;89.20;;;;;;5107577;28;20211;-78
2023/07/14 06:57:34;;;;;;;4.20;1.90;;;27.00;82.80;;;;;;5096863;28;20244;-76
2023/07/14 07:00:08;;;;;;;5.63;2.08;;;27.60;81.70;;;;;;5096708;28;20215;-77
2023/07/14 07:02:37;;;;;;;6.22;1.80;;;27.90;82.10;;;;;;5095794;28;20200;-78
2023/07/14 07:05:06;;;;;;;5.95;2.10;;;28.60;77.20;;;;;;5095719;28;20218;-77
2023/07/14 07:07:34;;;;;;;4.07;2.10;;;28.90;71.90;;;;;;5095793;28;20214;-80
2023/07/14 07:10:03;;;;;;;8.07;2.10;;;29.00;71.90;;;;;;5096737;28;20217;-79
2023/07/14 07:12:32;;;;;;;3.10;1.88;;;29.50;73.90;;;;;;5094980;28;20203;-77
2023/07/14 07:15:00;;;;;;;4.38;1.98;;;29.70;71.60;;;;;;5095510;28;20599;-79
2023/07/14 07:17:30;;;;;;;3.72;2.10;;;30.20;71.70;;;;;;5095167;28;20203;-81
2023/07/14 07:19:58;;;;;;;6.63;1.88;;;30.40;65.70;;;;;;5094818;28;20280;-81
2023/07/14 07:22:26;;;;;;;1.77;1.60;;;30.00;65.40;;;;;;5094543;28;20213;-81
2023/07/14 07:24:55;;;;;;;4.40;1.73;;;30.20;66.20;;;;;;5095292;28;20295;-83
2023/07/14 07:27:23;;;;;;;4.13;2.17;;;30.40;64.50;;;;;;5103117;28;20226;-81
2023/07/14 07:29:51;;;;;;;5.30;2.63;;;30.90;60.30;;;;;;5115745;28;20209;-82
2023/07/14 07:32:19;;;;;;;5.50;2.33;;;30.80;62.00;;;;;;5099065;28;20714;-83
2023/07/14 07:34:49;;;;;;;2.28;1.77;;;30.80;60.00;;;;;;5100034;28;20226;-79
2023/07/14 07:37:18;;;;;;;2.95;1.73;;;30.80;58.60;;;;;;5113854;28;20226;-82
2023/07/14 07:39:46;;;;;;;3.55;1.70;;;30.60;60.90;;;;;;5113803;28;20224;-83
2023/07/14 07:42:14;;;;;;;3.53;1.95;;;31.40;58.30;;;;;;5112235;28;20209;-82
2023/07/14 07:44:43;;;;;;;4.47;2.00;;;31.90;55.60;;;;;;5114270;28;20561;-78
2023/07/14 07:47:12;;;;;;;2.22;1.92;;;32.50;54.70;;;;;;5114892;28;20626;-81
2023/07/14 07:49:41;;;;;;;4.20;1.90;;;32.40;52.90;;;;;;5099462;28;20207;-81
2023/07/14 07:52:11;;;;;;;3.92;1.83;;;33.30;51.30;;;;;;5093474;28;20237;-82
2023/07/14 07:54:40;;;;;;;2.28;1.70;;;33.40;51.20;;;;;;5095074;28;20218;-81
2023/07/14 07:57:09;;;;;;;4.20;2.00;;;33.50;52.20;;;;;;5094210;28;20195;-81
2023/07/14 07:59:39;;;;;;;3.90;1.95;;;33.30;50.40;;;;;;5103660;28;20233;-81
2023/07/14 08:02:08;;;;;;;3.97;2.60;;;33.40;48.00;;;;;;5113886;28;20274;-81
2023/07/14 08:04:37;;;;;;;6.93;2.25;;;33.40;48.60;;;;;;5110604;28;20722;-79
2023/07/14 08:07:11;;;;;;;4.07;1.95;;;33.30;47.70;;;;;;5112065;28;20276;-80
2023/07/14 08:09:40;;;;;;;3.42;1.98;;;33.50;48.30;;;;;;5114673;28;20285;-80
2023/07/14 08:12:09;;;;;;;3.28;2.00;;;33.60;47.50;;;;;;5113685;28;20680;-82
2023/07/14 08:14:51;;;;;;;3.47;1.95;;;34.40;44.40;;;;;;5110814;28;20198;-80
2023/07/14 08:17:22;;;;;;;2.25;1.90;;;34.30;44.40;;;;;;5111019;28;20209;-82
2023/07/14 08:19:51;;;;;;;3.58;2.00;;;32.90;44.40;;;;;;5114522;28;20202;-82
2023/07/14 08:22:22;;;;;;;3.85;2.17;;;33.20;48.20;;;;;;5112513;28;20198;-82
2023/07/14 08:24:51;;;;;;;4.07;1.90;;;33.80;44.00;;;;;;5111816;28;20611;-81
2023/07/14 08:27:20;;;;;;;2.45;2.03;;;33.90;42.70;;;;;;5113941;28;20273;-79
2023/07/14 08:29:48;;;;;;;3.13;1.90;;;33.60;43.60;;;;;;5114995;28;20667;-79
2023/07/14 08:32:17;;;;;;;3.63;1.90;;;32.70;45.60;;;;;;5114103;28;20242;-81
2023/07/14 08:34:45;;;;;;;3.22;1.83;;;32.00;48.20;;;;;;5100727;28;20264;-79
2023/07/14 08:37:14;;;;;;;4.47;1.80;;;31.40;47.90;;;;;;5093999;28;20229;-79
2023/07/14 08:39:43;;;;;;;3.15;1.85;;;31.60;48.80;;;;;;5093700;28;20217;-78
2023/07/14 08:42:27;;;;;;;5.93;2.20;;;31.50;46.40;;;;;;5092873;28;20218;-81
2023/07/14 08:45:08;;;;;;;2.65;2.05;;;32.40;47.10;;;;;;5093768;28;20664;-80
2023/07/14 08:47:47;;;;;;;2.95;2.00;;;32.80;44.60;;;;;;5093782;28;20280;-81
2023/07/14 08:50:21;;;;;;;4.10;2.20;;;33.00;45.70;;;;;;5130306;27;20198;-79
2023/07/14 08:52:56;;;;;;;3.45;2.00;;;33.30;43.00;;;;;;5109898;28;20206;-79
2023/07/14 08:55:27;;;;;;;3.47;2.00;;;33.30;45.00;;;;;;5113805;28;20199;-80
2023/07/14 08:58:00;;;;;;;3.88;2.00;;;33.10;45.80;;;;;;5113581;28;20194;-77
2023/07/14 09:00:37;;;;;;;2.53;2.00;;;33.00;45.60;;;;;;5110769;28;20293;-79
2023/07/14 09:03:09;;;;;;;4.95;2.10;;;33.20;43.90;;;;;;5113030;28;20190;-77
2023/07/14 09:05:44;;;;;;;2.55;1.98;;;32.00;44.10;;;;;;5112895;28;20305;-80
2023/07/14 09:08:13;;;;;;;2.70;1.80;;;32.00;48.80;;;;;;5113155;28;20217;-79
2023/07/14 09:10:52;;;;;;;3.45;2.30;;;31.70;47.00;;;;;;5112738;28;20255;-77
2023/07/14 09:13:34;;;;;;;2.88;1.98;;;31.90;43.60;;;;;;5113407;28;20194;-78
2023/07/14 09:16:03;;;;;;;3.25;1.98;;;31.20;47.40;;;;;;5114064;28;20572;-78
2023/07/14 09:18:43;;;;;;;3.97;2.05;;;30.40;49.10;;;;;;5114025;28;20493;-78
2023/07/14 09:21:19;;;;;;;2.33;1.70;;;30.10;49.50;;;;;;5110234;28;20198;-80
2023/07/14 09:24:11;;;;;;;2.97;1.80;;;30.90;48.70;;;;;;5111507;28;20209;-79
2023/07/14 09:26:43;;;;;;;3.90;1.85;;;31.50;48.90;;;;;;5112065;28;20217;-79
2023/07/14 09:29:16;;;;;;;3.65;2.00;;;32.00;46.50;;;;;;5114853;28;20521;-80
2023/07/14 09:31:53;;;;;;;6.20;1.85;;;32.40;41.50;;;;;;5109311;28;20205;-79
2023/07/14 09:34:27;;;;;;;2.13;1.80;;;32.00;42.20;;;;;;5113404;28;20318;-79
2023/07/14 09:36:57;;;;;;;3.03;1.90;;;31.80;42.80;;;;;;5107792;28;20225;-79
2023/07/14 09:39:30;;;;;;;3.97;1.90;;;31.10;42.90;;;;;;5108647;28;20684;-77
2023/07/14 09:42:02;;;;;;;2.08;1.75;;;30.80;45.20;;;;;;5112261;28;20576;-77
2023/07/14 09:44:30;;;;;;;5.53;1.90;;;30.40;44.70;;;;;;5112431;28;20212;-80
2023/07/14 09:47:02;;;;;;;3.17;1.90;;;30.70;46.20;;;;;;5113363;28;20210;-77
2023/07/14 09:49:37;;;;;;;2.70;1.80;;;30.80;43.40;;;;;;5114771;28;20656;-76
2023/07/14 09:52:14;;;;;;;4.68;1.95;;;30.20;45.40;;;;;;5113197;28;20258;-79
2023/07/14 09:54:49;;;;;;;2.90;2.10;;;30.80;45.10;;;;;;5116129;28;20241;-79
2023/07/14 09:57:21;;;;;;;3.00;1.90;;;31.80;42.80;;;;;;5124644;28;20263;-79
2023/07/14 10:00:16;;;;;;;3.92;1.80;;;32.20;43.40;;;;;;5119986;28;20191;-79
2023/07/14 10:02:44;;;;;;;4.43;1.70;;;32.80;45.50;;;;;;5117800;28;20205;-80
2023/07/14 10:05:30;;;;;;;3.20;2.00;;;33.60;43.60;;;;;;5120843;28;20255;-80
2023/07/14 10:07:58;;;;;;;2.70;1.80;;;33.30;38.10;;;;;;5118910;28;20277;-78
2023/07/14 10:10:26;;;;;;;5.10;1.70;;;32.60;42.50;;;;;;5103348;28;20300;-80
2023/07/14 10:12:56;;;;;;;4.50;1.85;;;32.20;42.80;;;;;;5095035;28;20210;-79
2023/07/14 10:15:30;;;;;;;3.55;1.98;;;32.20;41.20;;;;;;5101119;28;20206;-80
2023/07/14 10:18:01;;;;;;;2.63;1.90;;;32.30;41.20;;;;;;5102849;28;20406;-79
2023/07/14 10:20:31;;;;;;;2.65;1.73;;;32.40;42.00;;;;;;5101895;28;20331;-80
2023/07/14 10:23:00;;;;;;;2.35;1.95;;;32.60;43.50;;;;;;5105493;28;20209;-79
2023/07/14 10:25:30;;;;;;;4.35;1.80;;;32.30;40.60;;;;;;5120061;28;20210;-77
2023/07/14 10:28:07;;;;;;;3.13;1.70;;;32.70;42.20;;;;;;5118992;28;20316;-80
2023/07/14 10:30:58;;;;;;;4.00;1.90;;;31.80;42.00;;;;;;5097006;27;20759;-79
2023/07/14 10:33:32;;;;;;;3.75;1.95;;;32.10;44.80;;;;;;5090595;28;20289;-80
2023/07/14 10:36:07;;;;;;;2.90;1.80;;;32.30;43.80;;;;;;5096204;28;20288;-79
2023/07/14 10:38:41;;;;;;;3.05;1.98;;;33.20;42.10;;;;;;5103357;28;20205;-78
2023/07/14 10:41:12;;;;;;;4.05;1.88;;;33.20;43.10;;;;;;5116501;28;20193;-77
2023/07/14 10:43:48;;;;;;;3.83;2.08;;;33.30;44.10;;;;;;5115456;28;20617;-79
2023/07/14 10:46:19;;;;;;;3.28;2.00;;;32.70;42.60;;;;;;5106376;28;20595;-79
2023/07/14 10:48:52;;;;;;;1.95;1.58;;;31.80;42.80;;;;;;5095302;28;20318;-77
2023/07/14 10:51:30;;;;;;;4.40;2.00;;;31.20;43.60;;;;;;5096364;28;20567;-77
2023/07/14 10:54:05;;;;;;;3.75;1.85;;;30.30;42.20;;;;;;5107045;28;20656;-78
2023/07/14 10:56:38;;;;;;;3.60;1.67;;;30.00;49.90;;;;;;5104764;28;20209;-75
2023/07/14 10:59:15;;;;;;;2.92;1.80;;;30.30;44.30;;;;;;5096286;28;20702;-78
2023/07/14 11:01:57;;;;;;;3.15;1.80;;;30.60;43.30;;;;;;5096582;28;20191;-78
2023/07/14 11:04:32;;;;;;;2.33;1.73;;;30.10;45.70;;;;;;5096195;28;20199;-79
2023/07/14 11:07:01;;;;;;;4.72;2.00;;;30.20;45.50;;;;;;5095480;28;20295;-78
2023/07/14 11:09:30;;;;;;;4.28;2.15;;;30.80;42.50;;;;;;5095323;28;20681;-79
2023/07/14 11:12:22;;;;;;;6.43;2.35;;;31.60;41.40;;;;;;5095324;28;20253;-77
2023/07/14 11:15:04;;;;;;;3.90;2.30;;;31.60;42.00;;;;;;5095729;28;20228;-78
2023/07/14 11:17:40;;;;;;;3.08;1.80;;;31.40;42.30;;;;;;5095432;28;20670;-78
2023/07/14 11:20:18;;;;;;;5.13;1.70;;;31.00;41.30;;;;;;5105573;28;20202;-77
2023/07/14 11:23:00;;;;;;;2.60;1.73;;;30.70;40.80;;;;;;5111634;28;20770;-77
2023/07/14 11:25:35;;;;;;;3.08;1.70;;;30.20;41.00;;;;;;5114088;28;20526;-79
2023/07/14 11:28:13;;;;;;;3.33;1.90;;;30.50;42.10;;;;;;5113411;28;20271;-77
2023/07/14 11:30:47;;;;;;;2.50;1.70;;;30.00;43.10;;;;;;5110995;28;20607;-77
2023/07/14 11:33:23;;;;;;;3.45;2.05;;;30.70;42.60;;;;;;5114128;28;20194;-76
2023/07/14 11:35:56;;;;;;;5.30;1.98;;;30.30;43.20;;;;;;5114910;28;20240;-76
2023/07/14 11:38:35;;;;;;;2.80;1.50;;;30.00;42.10;;;;;;5113138;28;20199;-76
2023/07/14 11:41:04;;;;;;;3.80;1.85;;;29.60;46.60;;;;;;5094968;28;20202;-76
2023/07/14 11:43:33;;;;;;;2.20;1.77;;;29.60;43.20;;;;;;5095012;28;20206;-75
2023/07/14 11:46:05;;;;;;;3.57;1.60;;;29.30;43.50;;;;;;5103556;28;20206;-75
2023/07/14 11:48:38;;;;;;;5.60;2.03;;;29.50;43.50;;;;;;5111347;28;20230;-75
2023/07/14 11:51:09;;;;;;;2.77;1.80;;;29.60;43.60;;;;;;5115824;28;20259;-76
2023/07/14 11:53:40;;;;;;;3.87;1.87;;;29.50;43.50;;;;;;5114547;28;20198;-77
2023/07/14 11:56:38;;;;;;;3.37;1.80;;;29.70;45.80;;;;;;5115358;28;20667;-78
2023/07/14 11:59:13;;;;;;;3.00;1.50;;;29.80;46.40;;;;;;5084506;28;20358;-75
2023/07/14 12:01:49;;;;;;;5.83;1.90;;;29.60;41.40;;;;;;5095225;28;20664;-76
2023/07/14 12:04:25;;;;;;;3.43;1.73;;;29.30;45.00;;;;;;5094866;28;20252;-75
2023/07/14 12:07:11;;;;;;;2.67;1.53;;;29.50;44.60;;;;;;5094549;28;20236;-76
2023/07/14 12:10:10;;;;;;;2.63;1.60;;;29.60;46.60;;;;;;5096259;28;20223;-75
2023/07/14 12:12:39;;;;;;;2.40;1.70;;;29.70;41.10;;;;;;5103539;28;20271;-75
2023/07/14 12:15:42;;;;;;;4.33;1.53;;;29.10;41.60;;;;;;5094766;28;20572;-75
2023/07/14 12:18:30;;;;;;;2.00;1.50;;;29.30;41.80;;;;;;5108428;28;20198;-76
2023/07/14 12:21:21;;;;;;;3.37;1.70;;;29.50;45.90;;;;;;5115850;28;20710;-75
2023/07/14 12:23:52;;;;;;;2.73;1.63;;;29.40;46.50;;;;;;5113748;28;20217;-75
2023/07/14 12:26:32;;;;;;;2.20;1.70;;;29.40;43.80;;;;;;5114340;28;20206;-75
2023/07/14 12:29:02;;;;;;;3.47;1.73;;;29.10;40.80;;;;;;5114226;28;20214;-75
2023/07/14 12:31:36;;;;;;;3.87;1.77;;;28.80;41.90;;;;;;5100845;28;20297;-74
2023/07/14 12:34:05;;;;;;;1.60;1.50;;;29.10;42.80;;;;;;5093176;28;20637;-76
2023/07/14 12:36:34;;;;;;;3.57;1.70;;;28.90;42.50;;;;;;5093239;28;20761;-75
2023/07/14 12:39:04;;;;;;;3.70;1.60;;;28.90;43.90;;;;;;5093654;28;20608;-76
2023/07/14 12:41:36;;;;;;;3.27;1.50;;;28.90;42.90;;;;;;5093651;28;20206;-76
2023/07/14 12:44:04;;;;;;;2.00;1.40;;;28.80;43.50;;;;;;5093288;28;20198;-76
2023/07/14 12:46:35;;;;;;;3.80;1.60;;;28.60;46.60;;;;;;5093533;28;20214;-77
2023/07/14 12:49:13;;;;;;;4.30;1.90;;;28.50;47.00;;;;;;5093250;28;20226;-76
2023/07/14 12:51:42;;;;;;;4.97;1.70;;;28.80;48.00;;;;;;5106883;28;20609;-76
2023/07/14 12:54:16;;;;;;;2.70;1.37;;;28.50;41.60;;;;;;5111660;28;20721;-75
2023/07/14 12:56:44;;;;;;;2.53;1.50;;;28.70;42.80;;;;;;5109171;28;20198;-76
2023/07/14 12:59:15;;;;;;;5.17;1.60;;;28.90;43.70;;;;;;5111465;28;20205;-76
2023/07/14 13:01:47;;;;;;;1.60;1.43;;;28.80;41.10;;;;;;5111227;28;20206;-75
2023/07/14 13:04:19;;;;;;;2.30;1.60;;;29.10;45.40;;;;;;5106722;28;20211;-76
2023/07/14 13:06:59;;;;;;;1.80;1.47;;;29.10;41.90;;;;;;5106217;28;20255;-75
2023/07/14 13:09:29;;;;;;;5.37;1.63;;;29.10;41.70;;;;;;5112087;28;20210;-76
2023/07/14 13:11:58;;;;;;;2.57;1.73;;;29.10;41.40;;;;;;5105116;28;20203;-75